Time;durP1;ratioP1;P1;durP2;ratioP2;P2;SDS_P1;SDS_P2;PMS_P1;PMS_P2;Temp;Humidity;BMP_temperature;BMP_pressure;BME280_temperature;BME280_humidity;BME280_pressure;Samples;Min_cycle;Max_cycle;Signal;HPM_P1;HPM_P2
2021/09/22 00:01:10;;;;;;;4.57;3.42;;;17.00;62.50;;;;;;5059512;28;20032;-80
2021/09/22 00:03:36;;;;;;;5.22;3.58;;;17.00;62.60;;;;;;5076922;28;20499;-83
2021/09/22 00:06:02;;;;;;;4.53;3.28;;;16.90;62.60;;;;;;5075852;28;20439;-80
2021/09/22 00:08:28;;;;;;;4.70;3.95;;;16.90;62.60;;;;;;5094431;28;20079;-81
2021/09/22 00:10:54;;;;;;;5.25;3.83;;;16.90;62.60;;;;;;5059942;28;20040;-81
2021/09/22 00:13:20;;;;;;;5.07;3.58;;;16.90;62.60;;;;;;5060052;28;20153;-81
2021/09/22 00:15:46;;;;;;;5.18;3.67;;;16.80;62.60;;;;;;5060299;28;20392;-81
2021/09/22 00:18:12;;;;;;;5.75;3.97;;;16.80;62.70;;;;;;5060189;28;20028;-80
2021/09/22 00:20:37;;;;;;;5.38;3.88;;;16.80;62.60;;;;;;5077460;28;20399;-80
2021/09/22 00:23:04;;;;;;;5.20;3.70;;;16.80;62.70;;;;;;5076682;28;20107;-81
2021/09/22 00:25:32;;;;;;;5.80;3.85;;;16.80;62.70;;;;;;5060409;28;20028;-81
2021/09/22 00:27:59;;;;;;;4.95;3.42;;;16.70;62.70;;;;;;5077480;28;20175;-82
2021/09/22 00:30:25;;;;;;;4.60;3.47;;;16.70;62.70;;;;;;5059903;28;20099;-83
2021/09/22 00:32:52;;;;;;;4.47;3.40;;;16.70;62.70;;;;;;5076117;28;20036;-81
2021/09/22 00:35:18;;;;;;;4.55;3.38;;;16.70;62.80;;;;;;5045543;28;20034;-80
2021/09/22 00:37:44;;;;;;;5.00;3.72;;;16.70;62.80;;;;;;5060371;28;20036;-81
2021/09/22 00:40:11;;;;;;;5.13;3.80;;;16.60;62.40;;;;;;5059032;28;20464;-81
2021/09/22 00:42:37;;;;;;;4.75;3.45;;;16.60;62.80;;;;;;5059064;28;20520;-81
2021/09/22 00:45:08;;;;;;;4.75;3.47;;;16.60;62.90;;;;;;5093927;28;20077;-81
2021/09/22 00:47:35;;;;;;;4.57;3.53;;;16.60;62.90;;;;;;5075836;28;20527;-80
2021/09/22 00:50:10;;;;;;;4.90;3.58;;;16.60;62.90;;;;;;5060257;28;20079;-81
2021/09/22 00:52:38;;;;;;;5.38;4.00;;;16.50;62.90;;;;;;5059672;28;20087;-83
2021/09/22 00:55:05;;;;;;;5.25;3.53;;;16.50;62.90;;;;;;5059022;28;20073;-81
2021/09/22 00:57:31;;;;;;;4.65;3.42;;;16.50;63.00;;;;;;5042131;28;20146;-81
2021/09/22 00:59:56;;;;;;;4.97;3.60;;;16.50;63.00;;;;;;5075522;28;20063;-81
2021/09/22 01:02:22;;;;;;;5.40;3.55;;;16.50;63.00;;;;;;5058650;28;20400;-80
2021/09/22 01:04:48;;;;;;;5.07;3.50;;;16.40;63.00;;;;;;5075556;28;20028;-80
2021/09/22 01:07:15;;;;;;;4.97;3.75;;;16.40;63.00;;;;;;5093084;28;20036;-80
2021/09/22 01:09:42;;;;;;;4.97;3.60;;;16.40;63.10;;;;;;5075862;28;20063;-81
2021/09/22 01:12:09;;;;;;;5.38;3.67;;;16.40;63.10;;;;;;5076235;28;20028;-81
2021/09/22 01:14:35;;;;;;;4.90;3.58;;;16.40;63.10;;;;;;5042504;28;20039;-80
2021/09/22 01:17:01;;;;;;;5.28;3.58;;;16.30;63.00;;;;;;5041936;28;20024;-80
2021/09/22 01:19:27;;;;;;;4.60;3.50;;;16.30;63.10;;;;;;5077887;28;20046;-81
2021/09/22 01:21:55;;;;;;;5.85;4.10;;;16.30;63.10;;;;;;5079100;28;20028;-81
2021/09/22 01:24:26;;;;;;;5.43;3.78;;;16.30;63.10;;;;;;5078817;28;20464;-81
2021/09/22 01:26:53;;;;;;;5.15;3.35;;;16.30;63.10;;;;;;5062078;28;20457;-81
2021/09/22 01:29:19;;;;;;;5.60;3.97;;;16.20;63.10;;;;;;5061687;28;20074;-81
2021/09/22 01:31:49;;;;;;;5.13;3.88;;;16.20;63.20;;;;;;5031006;28;20028;-81
2021/09/22 01:34:15;;;;;;;4.80;3.70;;;16.20;63.30;;;;;;5028551;28;20028;-83
2021/09/22 01:37:04;;;;;;;4.53;3.47;;;16.20;63.20;;;;;;5064975;28;20024;-81
2021/09/22 01:39:50;;;;;;;4.93;3.63;;;16.10;63.10;;;;;;5057652;28;20036;-80
2021/09/22 01:42:16;;;;;;;5.18;3.75;;;16.20;63.20;;;;;;5063238;28;20077;-81
2021/09/22 01:44:42;;;;;;;5.45;4.05;;;16.10;63.20;;;;;;5061743;28;20025;-81
2021/09/22 01:47:17;;;;;;;5.53;3.80;;;16.10;63.30;;;;;;5047913;28;20055;-83
2021/09/22 01:50:06;;;;;;;5.30;3.88;;;16.10;63.30;;;;;;5049770;28;20098;-80
2021/09/22 01:52:36;;;;;;;4.90;3.53;;;16.10;63.40;;;;;;5062505;28;20020;-80
2021/09/22 01:55:14;;;;;;;5.47;4.03;;;16.00;63.30;;;;;;5064093;28;20044;-83
2021/09/22 01:57:41;;;;;;;4.68;3.42;;;16.00;63.30;;;;;;5061667;28;20031;-81
2021/09/22 02:00:08;;;;;;;5.13;3.83;;;16.00;63.40;;;;;;5077957;28;20048;-81
2021/09/22 02:02:40;;;;;;;5.57;3.70;;;16.00;63.40;;;;;;5096190;28;20173;-81
2021/09/22 02:05:27;;;;;;;4.57;3.58;;;15.90;63.40;;;;;;5078125;28;20059;-81
2021/09/22 02:08:13;;;;;;;5.72;3.88;;;15.90;63.30;;;;;;5063353;28;20040;-84
2021/09/22 02:10:41;;;;;;;5.45;3.90;;;15.90;63.40;;;;;;5044911;28;20036;-80
2021/09/22 02:13:07;;;;;;;5.10;3.80;;;15.90;63.40;;;;;;5077666;28;20122;-82
2021/09/22 02:15:36;;;;;;;4.93;3.58;;;15.90;63.50;;;;;;5061156;28;20101;-81
2021/09/22 02:18:21;;;;;;;4.60;3.47;;;15.80;63.40;;;;;;5067114;28;20123;-81
2021/09/22 02:20:49;;;;;;;4.88;3.75;;;15.80;63.40;;;;;;5061084;28;20028;-81
2021/09/22 02:23:20;;;;;;;4.60;3.40;;;15.80;63.50;;;;;;5078352;28;20031;-81
2021/09/22 02:25:47;;;;;;;5.90;4.10;;;15.80;63.50;;;;;;5045468;28;20040;-81
2021/09/22 02:28:13;;;;;;;6.25;4.03;;;15.80;63.50;;;;;;5062283;28;20028;-82
2021/09/22 02:30:43;;;;;;;5.25;3.83;;;15.70;63.60;;;;;;5063236;28;20070;-81
2021/09/22 02:33:09;;;;;;;5.90;4.07;;;15.70;63.50;;;;;;5063046;28;20025;-81
2021/09/22 02:35:35;;;;;;;5.88;4.47;;;15.70;63.60;;;;;;5030168;28;20032;-81
2021/09/22 02:38:31;;;;;;;6.07;3.88;;;15.70;63.60;;;;;;5080678;28;20048;-81
2021/09/22 02:40:59;;;;;;;5.35;4.15;;;15.70;63.60;;;;;;5064388;28;20060;-80
2021/09/22 02:43:25;;;;;;;5.38;3.85;;;15.70;63.60;;;;;;5048216;28;20048;-80
2021/09/22 02:45:52;;;;;;;4.82;3.85;;;15.60;63.60;;;;;;5079302;28;20024;-81
2021/09/22 02:48:22;;;;;;;4.80;3.58;;;15.60;63.60;;;;;;5063784;28;20035;-81
2021/09/22 02:50:50;;;;;;;5.43;4.35;;;15.60;63.60;;;;;;5080302;28;20428;-81
2021/09/22 02:53:16;;;;;;;6.22;4.50;;;15.60;63.60;;;;;;5080810;28;20024;-81
2021/09/22 02:55:42;;;;;;;5.57;4.30;;;15.50;63.60;;;;;;5099317;28;20035;-80
2021/09/22 02:58:09;;;;;;;5.82;4.40;;;15.50;63.60;;;;;;5045779;28;20032;-81
2021/09/22 03:00:37;;;;;;;5.57;4.13;;;15.50;63.60;;;;;;5061373;28;20032;-80
2021/09/22 03:03:03;;;;;;;6.13;4.57;;;15.50;63.60;;;;;;5078025;28;20038;-81
2021/09/22 03:05:29;;;;;;;6.38;4.57;;;15.50;63.70;;;;;;5060761;28;20555;-81
2021/09/22 03:07:55;;;;;;;6.15;4.60;;;15.50;63.70;;;;;;5077008;28;20048;-81
2021/09/22 03:10:21;;;;;;;5.47;4.30;;;15.50;63.70;;;;;;5076944;28;20071;-81
2021/09/22 03:12:48;;;;;;;6.60;4.65;;;15.50;63.80;;;;;;5076579;28;20025;-82
2021/09/22 03:15:14;;;;;;;5.45;4.18;;;15.40;63.80;;;;;;5060047;28;20028;-81
2021/09/22 03:17:41;;;;;;;6.20;4.60;;;15.40;63.80;;;;;;5059883;28;20055;-81
2021/09/22 03:20:08;;;;;;;6.20;4.93;;;15.40;63.80;;;;;;5059862;28;20123;-81
2021/09/22 03:22:34;;;;;;;5.93;4.28;;;15.40;63.80;;;;;;5027654;28;20046;-81
2021/09/22 03:25:28;;;;;;;6.18;4.53;;;15.30;63.80;;;;;;5067812;28;20115;-81
2021/09/22 03:27:55;;;;;;;6.18;4.40;;;15.30;63.70;;;;;;5043456;28;20079;-81
2021/09/22 03:30:21;;;;;;;6.65;4.85;;;15.30;63.80;;;;;;5043125;28;20437;-83
2021/09/22 03:32:52;;;;;;;6.70;4.85;;;15.30;63.80;;;;;;5029128;28;20020;-81
2021/09/22 03:35:18;;;;;;;7.00;5.25;;;15.30;63.90;;;;;;5076852;28;20058;-81
2021/09/22 03:37:44;;;;;;;5.80;4.47;;;15.30;63.90;;;;;;5076104;28;20039;-81
2021/09/22 03:40:11;;;;;;;6.22;4.80;;;15.20;63.80;;;;;;5059561;28;20039;-81
2021/09/22 03:42:37;;;;;;;6.47;4.88;;;15.20;63.90;;;;;;5059176;28;20384;-81
2021/09/22 03:45:06;;;;;;;6.57;4.78;;;15.30;64.00;;;;;;5059696;28;20094;-82
2021/09/22 03:47:32;;;;;;;6.90;4.85;;;15.30;64.00;;;;;;5059439;28;20020;-80
2021/09/22 03:49:58;;;;;;;6.88;5.07;;;15.20;63.90;;;;;;5059892;28;20364;-81
2021/09/22 03:52:42;;;;;;;6.15;4.68;;;15.20;64.00;;;;;;5062105;28;20016;-81
2021/09/22 03:55:09;;;;;;;8.77;5.45;;;15.20;64.00;;;;;;5075810;28;20028;-80
2021/09/22 03:57:35;;;;;;;6.72;5.05;;;15.20;64.00;;;;;;5059081;28;20030;-81
2021/09/22 04:00:01;;;;;;;6.53;4.68;;;15.10;64.00;;;;;;5059958;28;20031;-81
2021/09/22 04:02:27;;;;;;;6.90;5.18;;;15.10;64.00;;;;;;5076573;28;20085;-81
2021/09/22 04:04:53;;;;;;;7.38;5.45;;;15.10;64.00;;;;;;5075765;28;20020;-82
2021/09/22 04:07:19;;;;;;;7.32;5.22;;;15.10;64.10;;;;;;5059100;28;20051;-80
2021/09/22 04:09:45;;;;;;;6.80;5.10;;;15.10;64.10;;;;;;5042390;28;20052;-81
2021/09/22 04:12:10;;;;;;;7.35;5.43;;;15.00;64.00;;;;;;5059157;28;20122;-81
2021/09/22 04:14:36;;;;;;;7.32;5.70;;;15.10;64.20;;;;;;5075637;28;20123;-82
2021/09/22 04:17:03;;;;;;;7.45;5.68;;;15.10;64.20;;;;;;5042639;28;20028;-80
2021/09/22 04:19:29;;;;;;;7.25;5.35;;;15.00;64.10;;;;;;5042502;28;20039;-81
2021/09/22 04:21:55;;;;;;;7.10;5.43;;;15.00;64.10;;;;;;5058766;28;20031;-81
2021/09/22 04:24:20;;;;;;;8.48;6.28;;;15.00;64.20;;;;;;5075635;28;20084;-81
2021/09/22 04:26:46;;;;;;;7.88;6.13;;;15.00;64.20;;;;;;5058789;28;20023;-81
2021/09/22 04:29:22;;;;;;;7.70;5.45;;;15.00;64.20;;;;;;5075777;28;20075;-81
2021/09/22 04:32:06;;;;;;;7.70;6.00;;;14.90;64.10;;;;;;5078951;28;20047;-80
2021/09/22 04:34:51;;;;;;;7.93;5.55;;;15.00;64.20;;;;;;5078293;28;20388;-81
2021/09/22 04:37:37;;;;;;;7.90;5.53;;;14.90;64.20;;;;;;5064630;28;20124;-80
2021/09/22 04:40:23;;;;;;;7.82;5.95;;;14.80;64.20;;;;;;5078883;28;20131;-80
2021/09/22 04:43:08;;;;;;;6.80;5.30;;;14.90;64.30;;;;;;5078964;28;20047;-80
2021/09/22 04:45:52;;;;;;;7.50;5.75;;;14.90;64.30;;;;;;5064864;28;20047;-81
2021/09/22 04:48:39;;;;;;;7.40;5.70;;;14.80;64.30;;;;;;5078418;28;20047;-79
2021/09/22 04:51:23;;;;;;;7.00;5.53;;;14.80;64.70;;;;;;5079107;28;20039;-84
2021/09/22 04:54:08;;;;;;;7.30;5.50;;;14.80;64.40;;;;;;5066160;28;20043;-79
2021/09/22 04:56:52;;;;;;;7.97;6.03;;;14.80;64.40;;;;;;5097358;28;20094;-80
2021/09/22 04:59:36;;;;;;;7.78;5.90;;;14.70;64.40;;;;;;5097172;28;20097;-78
2021/09/22 05:02:35;;;;;;;7.50;5.63;;;14.70;64.40;;;;;;5061444;28;20036;-79
2021/09/22 05:05:19;;;;;;;8.27;5.75;;;14.70;64.40;;;;;;5097084;28;20043;-78
2021/09/22 05:08:03;;;;;;;7.78;5.82;;;14.70;64.50;;;;;;5067342;28;20043;-78
2021/09/22 05:10:48;;;;;;;7.77;5.67;;;14.70;64.50;;;;;;5097006;28;20043;-79
2021/09/22 05:13:32;;;;;;;7.60;5.80;;;14.60;64.40;;;;;;5081682;28;20341;-78
2021/09/22 05:16:17;;;;;;;8.45;6.07;;;14.70;64.50;;;;;;5082169;28;20043;-79
2021/09/22 05:19:01;;;;;;;7.30;5.43;;;14.70;64.50;;;;;;5067274;28;20124;-79
2021/09/22 05:21:46;;;;;;;6.82;5.40;;;14.60;64.50;;;;;;5096838;28;20749;-77
2021/09/22 05:24:30;;;;;;;7.38;5.85;;;14.60;64.50;;;;;;5067120;28;20039;-79
2021/09/22 05:27:15;;;;;;;8.05;6.47;;;14.60;64.60;;;;;;5067455;28;20496;-79
2021/09/22 05:29:59;;;;;;;7.85;5.90;;;14.60;64.60;;;;;;5081059;28;20055;-78
2021/09/22 05:33:00;;;;;;;7.50;5.70;;;14.60;64.60;;;;;;5003112;28;20038;-82
2021/09/22 05:35:44;;;;;;;8.50;6.38;;;14.60;64.70;;;;;;5060790;28;20115;-79
2021/09/22 05:38:28;;;;;;;6.90;5.55;;;14.50;64.60;;;;;;5097080;28;20054;-78
2021/09/22 05:41:12;;;;;;;7.90;6.10;;;14.50;64.70;;;;;;5081253;28;20046;-77
2021/09/22 05:43:57;;;;;;;7.72;5.75;;;14.50;64.70;;;;;;5096255;28;20043;-78
2021/09/22 05:46:41;;;;;;;7.53;5.78;;;14.50;64.70;;;;;;5081414;28;20043;-79
2021/09/22 05:49:27;;;;;;;8.43;6.25;;;14.50;64.70;;;;;;5081397;28;20511;-78
2021/09/22 05:52:11;;;;;;;8.32;6.28;;;14.50;64.70;;;;;;5067720;28;20431;-78
2021/09/22 05:54:56;;;;;;;8.93;6.37;;;14.50;64.80;;;;;;5067114;28;20066;-78
2021/09/22 05:57:42;;;;;;;8.45;6.55;;;14.40;64.80;;;;;;5036625;28;20475;-78
2021/09/22 06:00:26;;;;;;;7.95;6.15;;;14.50;64.80;;;;;;5096636;28;20070;-78
2021/09/22 06:03:11;;;;;;;8.27;6.45;;;14.40;64.80;;;;;;5081341;28;20050;-79
2021/09/22 06:05:55;;;;;;;7.97;6.27;;;14.40;64.80;;;;;;5080175;28;20399;-79
2021/09/22 06:08:53;;;;;;;7.95;5.78;;;14.40;64.80;;;;;;5069765;28;20131;-77
2021/09/22 06:11:25;;;;;;;8.05;5.80;;;14.40;64.80;;;;;;5078509;28;20540;-78
2021/09/22 06:14:10;;;;;;;7.40;6.00;;;14.40;64.90;;;;;;5050061;28;20036;-78
2021/09/22 06:16:36;;;;;;;8.57;6.65;;;14.40;64.90;;;;;;5077453;28;20028;-79
2021/09/22 06:19:10;;;;;;;9.10;6.50;;;14.40;64.90;;;;;;5062256;28;20029;-78
2021/09/22 06:21:39;;;;;;;7.03;5.38;;;14.40;64.90;;;;;;5060639;28;20080;-80
2021/09/22 06:24:07;;;;;;;7.55;5.95;;;14.40;65.00;;;;;;5077582;28;20028;-79
2021/09/22 06:26:47;;;;;;;8.10;6.28;;;14.40;65.00;;;;;;5077544;28;20032;-79
2021/09/22 06:29:13;;;;;;;8.10;5.93;;;14.40;65.00;;;;;;5061335;28;20123;-78
2021/09/22 06:31:39;;;;;;;8.38;6.55;;;14.40;65.10;;;;;;5027881;28;20085;-79
2021/09/22 06:34:22;;;;;;;8.48;6.40;;;14.40;65.10;;;;;;5062893;28;20033;-78
2021/09/22 06:36:47;;;;;;;7.78;5.93;;;14.40;65.10;;;;;;5077399;28;20028;-78
2021/09/22 06:39:13;;;;;;;8.65;6.53;;;14.30;65.10;;;;;;5060747;28;20115;-79
2021/09/22 06:41:39;;;;;;;8.50;6.15;;;14.40;65.10;;;;;;5027371;28;20085;-80
2021/09/22 06:44:06;;;;;;;7.90;6.22;;;14.40;65.20;;;;;;5077656;28;20093;-79
2021/09/22 06:46:32;;;;;;;9.23;6.43;;;14.40;65.20;;;;;;5077313;28;20034;-79
2021/09/22 06:48:58;;;;;;;8.65;6.82;;;14.40;65.20;;;;;;5077161;28;20379;-79
2021/09/22 06:51:24;;;;;;;8.75;6.80;;;14.40;65.30;;;;;;5076650;28;20050;-78
2021/09/22 06:53:50;;;;;;;8.43;6.40;;;14.40;65.30;;;;;;5043960;28;20041;-79
2021/09/22 06:56:15;;;;;;;8.52;6.65;;;14.40;65.30;;;;;;5094716;28;20036;-81
2021/09/22 06:58:41;;;;;;;9.10;6.70;;;14.40;65.30;;;;;;5060201;28;20032;-81
2021/09/22 07:01:08;;;;;;;8.63;5.93;;;14.40;65.30;;;;;;5077367;28;20028;-82
2021/09/22 07:03:34;;;;;;;8.70;6.70;;;14.40;65.30;;;;;;5077228;28;20111;-80
2021/09/22 07:06:00;;;;;;;8.73;6.72;;;14.40;65.30;;;;;;5076824;28;20419;-81
2021/09/22 07:08:28;;;;;;;9.27;6.78;;;14.40;65.40;;;;;;5060045;28;20158;-81
2021/09/22 07:10:54;;;;;;;9.88;6.70;;;14.40;65.40;;;;;;5044067;28;20028;-81
2021/09/22 07:13:22;;;;;;;8.65;6.45;;;14.40;65.40;;;;;;5043540;28;20052;-81
2021/09/22 07:15:49;;;;;;;9.25;6.40;;;14.40;65.40;;;;;;5059072;28;20036;-79
2021/09/22 07:18:16;;;;;;;10.35;6.95;;;14.50;65.50;;;;;;5076400;28;20039;-81
2021/09/22 07:20:42;;;;;;;9.68;6.75;;;14.40;65.50;;;;;;5076266;28;20036;-86
2021/09/22 07:23:08;;;;;;;8.20;6.35;;;14.50;65.50;;;;;;5076309;28;20115;-81
2021/09/22 07:25:34;;;;;;;9.23;6.90;;;14.50;65.60;;;;;;5060034;28;20107;-80
2021/09/22 07:28:00;;;;;;;8.85;7.00;;;14.50;65.60;;;;;;5059482;28;20032;-80
2021/09/22 07:30:26;;;;;;;8.10;6.25;;;14.50;65.60;;;;;;5059509;28;20082;-80
2021/09/22 07:32:52;;;;;;;10.20;6.75;;;14.50;65.60;;;;;;5059378;28;20102;-82
2021/09/22 07:35:18;;;;;;;7.72;6.03;;;14.50;65.60;;;;;;5059408;28;20468;-81
2021/09/22 07:37:44;;;;;;;8.80;6.78;;;14.50;65.60;;;;;;5059746;28;20043;-83
2021/09/22 07:40:10;;;;;;;8.15;6.43;;;14.60;65.70;;;;;;5076265;28;20593;-80
2021/09/22 07:42:36;;;;;;;7.95;6.07;;;14.50;65.70;;;;;;5059202;28;20032;-80
2021/09/22 07:45:04;;;;;;;8.02;6.13;;;14.60;65.70;;;;;;5059279;28;20035;-81
2021/09/22 07:47:29;;;;;;;8.00;6.10;;;14.60;65.70;;;;;;5076220;28;20460;-81
2021/09/22 07:49:55;;;;;;;8.25;6.32;;;14.60;65.70;;;;;;5075529;28;20085;-81
2021/09/22 07:52:21;;;;;;;8.57;6.63;;;14.60;65.70;;;;;;5059289;28;20089;-81
2021/09/22 07:54:47;;;;;;;8.15;6.40;;;14.60;65.70;;;;;;5075724;28;20487;-81
2021/09/22 07:57:12;;;;;;;8.40;5.60;;;14.60;65.70;;;;;;5059241;28;20448;-81
2021/09/22 07:59:39;;;;;;;8.02;6.00;;;14.70;65.80;;;;;;5076071;28;20388;-81
2021/09/22 08:02:05;;;;;;;8.35;6.30;;;14.70;65.80;;;;;;5075830;28;20032;-81
2021/09/22 08:04:31;;;;;;;8.00;5.97;;;14.70;65.80;;;;;;5075844;28;20017;-81
2021/09/22 08:06:59;;;;;;;7.85;5.85;;;14.70;65.80;;;;;;5075538;28;20039;-81
2021/09/22 08:09:26;;;;;;;7.80;5.80;;;14.70;65.80;;;;;;5075433;28;20052;-81
2021/09/22 08:11:52;;;;;;;7.47;5.75;;;14.80;65.90;;;;;;5058660;28;20024;-80
2021/09/22 08:14:18;;;;;;;7.88;5.82;;;14.80;65.90;;;;;;5076462;28;20475;-81
2021/09/22 08:16:46;;;;;;;8.05;6.32;;;14.80;65.90;;;;;;5042593;28;20028;-81
2021/09/22 08:19:13;;;;;;;7.65;5.90;;;14.90;66.00;;;;;;5076174;28;20038;-79
2021/09/22 08:21:39;;;;;;;8.18;6.32;;;14.90;65.90;;;;;;5093670;28;20472;-80
2021/09/22 08:24:05;;;;;;;8.05;6.10;;;14.90;66.00;;;;;;5093963;28;20111;-79
2021/09/22 08:26:31;;;;;;;7.70;6.00;;;14.90;66.00;;;;;;5059150;28;20104;-79
2021/09/22 08:28:57;;;;;;;7.07;5.43;;;14.90;66.00;;;;;;5097166;28;20044;-80
2021/09/22 08:31:23;;;;;;;9.10;6.80;;;14.90;66.00;;;;;;5046215;28;20040;-80
2021/09/22 08:33:49;;;;;;;8.15;5.95;;;15.00;66.00;;;;;;5062790;28;20024;-81
2021/09/22 08:36:15;;;;;;;8.23;6.03;;;15.00;66.10;;;;;;5079725;28;20039;-80
2021/09/22 08:38:40;;;;;;;8.35;6.47;;;15.00;66.10;;;;;;5080294;28;20039;-80
2021/09/22 08:41:06;;;;;;;7.95;6.07;;;15.00;66.20;;;;;;5062871;28;20032;-79
2021/09/22 08:43:32;;;;;;;8.32;6.13;;;15.10;66.30;;;;;;5047015;28;20032;-79
2021/09/22 08:45:58;;;;;;;8.10;6.30;;;15.10;66.30;;;;;;5079258;28;20081;-79
2021/09/22 08:48:25;;;;;;;9.65;6.45;;;15.20;66.40;;;;;;5062558;28;20032;-79
2021/09/22 08:50:53;;;;;;;7.70;6.03;;;15.20;66.40;;;;;;5079295;28;20048;-79
2021/09/22 08:53:19;;;;;;;7.80;6.32;;;15.20;66.50;;;;;;5079196;28;20119;-79
2021/09/22 08:55:45;;;;;;;8.65;6.50;;;15.20;66.50;;;;;;5062428;28;20161;-79
2021/09/22 08:58:10;;;;;;;7.55;5.93;;;15.30;66.40;;;;;;5046045;28;20062;-81
2021/09/22 09:00:36;;;;;;;8.20;6.30;;;15.30;66.30;;;;;;5079318;28;20543;-80
2021/09/22 09:03:02;;;;;;;7.93;6.25;;;15.40;66.30;;;;;;5062147;28;20389;-78
2021/09/22 09:05:28;;;;;;;7.90;5.97;;;15.40;66.20;;;;;;5078909;28;20020;-79
2021/09/22 09:07:59;;;;;;;8.73;6.40;;;15.50;66.20;;;;;;5097057;28;20376;-79
2021/09/22 09:10:28;;;;;;;8.90;6.32;;;15.50;66.20;;;;;;5078663;28;20036;-79
2021/09/22 09:13:11;;;;;;;7.32;5.97;;;15.50;66.10;;;;;;5079822;28;20039;-79
2021/09/22 09:15:40;;;;;;;7.07;5.38;;;15.60;66.20;;;;;;5078698;28;20098;-80
2021/09/22 09:18:17;;;;;;;9.27;5.57;;;15.70;66.00;;;;;;5078947;28;20117;-79
2021/09/22 09:20:50;;;;;;;8.25;6.07;;;15.70;66.00;;;;;;5062434;28;20349;-79
2021/09/22 09:23:19;;;;;;;7.75;5.75;;;15.70;65.90;;;;;;5078918;28;20031;-79
2021/09/22 09:25:57;;;;;;;7.60;5.45;;;15.80;65.80;;;;;;5078357;28;20448;-79
2021/09/22 09:28:29;;;;;;;6.72;5.28;;;15.90;65.90;;;;;;5062150;28;20556;-79
2021/09/22 09:31:01;;;;;;;7.15;5.80;;;15.90;65.70;;;;;;5097336;28;20093;-80
2021/09/22 09:33:43;;;;;;;7.20;5.70;;;16.00;65.70;;;;;;5078523;28;20414;-79
2021/09/22 09:36:27;;;;;;;6.93;5.32;;;16.00;65.70;;;;;;5096375;28;20456;-79
2021/09/22 09:39:03;;;;;;;7.65;5.60;;;16.10;65.60;;;;;;5077737;28;20166;-79
2021/09/22 09:41:30;;;;;;;7.60;5.30;;;16.10;65.60;;;;;;5062019;28;20032;-79
2021/09/22 09:43:57;;;;;;;7.88;5.38;;;16.20;65.50;;;;;;5061605;28;20032;-82
2021/09/22 09:46:25;;;;;;;7.57;6.07;;;16.30;65.60;;;;;;5061472;28;20060;-80
2021/09/22 09:49:03;;;;;;;7.10;5.47;;;16.30;65.60;;;;;;5078360;28;20429;-79
2021/09/22 09:51:32;;;;;;;7.50;5.40;;;16.40;65.80;;;;;;5061751;28;20410;-80
2021/09/22 09:54:05;;;;;;;7.30;5.35;;;16.50;65.80;;;;;;5096417;28;20032;-80
2021/09/22 09:56:33;;;;;;;7.15;5.43;;;16.50;65.90;;;;;;5061314;28;20028;-79
2021/09/22 09:58:59;;;;;;;7.00;5.63;;;16.60;65.80;;;;;;5078211;28;20130;-80
2021/09/22 10:01:40;;;;;;;6.28;4.78;;;16.70;66.00;;;;;;5061199;28;20341;-80
2021/09/22 10:04:08;;;;;;;7.00;5.43;;;16.80;66.20;;;;;;5077817;28;20064;-79
2021/09/22 10:06:34;;;;;;;8.60;5.53;;;16.90;66.20;;;;;;5061373;28;20431;-79
2021/09/22 10:09:01;;;;;;;7.32;5.38;;;16.90;66.20;;;;;;5074177;28;20049;-82
2021/09/22 10:11:27;;;;;;;5.88;4.75;;;17.00;66.40;;;;;;5057802;28;20036;-79
2021/09/22 10:13:54;;;;;;;6.32;4.82;;;17.10;66.40;;;;;;5075146;28;20449;-79
2021/09/22 10:16:20;;;;;;;7.00;5.70;;;17.20;66.50;;;;;;5074369;28;20108;-79
2021/09/22 10:18:48;;;;;;;7.38;5.13;;;17.30;66.60;;;;;;5074605;28;20067;-82
2021/09/22 10:21:18;;;;;;;6.07;4.72;;;17.30;66.80;;;;;;5057467;28;20120;-80
2021/09/22 10:23:44;;;;;;;6.95;5.28;;;17.40;66.80;;;;;;5058192;28;20025;-79
2021/09/22 10:26:11;;;;;;;6.25;4.85;;;17.50;66.90;;;;;;5057660;28;20028;-81
2021/09/22 10:28:42;;;;;;;6.32;4.80;;;17.60;67.00;;;;;;5057361;28;20029;-80
2021/09/22 10:31:37;;;;;;;7.20;5.10;;;17.70;67.10;;;;;;5074918;28;20054;-80
2021/09/22 10:34:04;;;;;;;6.38;4.50;;;17.70;67.30;;;;;;5073543;28;20036;-81
2021/09/22 10:36:42;;;;;;;7.30;5.60;;;17.90;67.20;;;;;;5058279;28;20036;-91
2021/09/22 10:39:23;;;;;;;8.60;6.32;;;17.90;67.30;;;;;;5059268;28;20075;-90
2021/09/22 10:41:49;;;;;;;9.68;7.05;;;18.00;67.20;;;;;;5076833;28;20021;-91
2021/09/22 10:44:33;;;;;;;10.38;8.32;;;18.20;67.00;;;;;;5048019;28;20528;-90
2021/09/22 10:47:28;;;;;;;10.18;8.02;;;18.20;67.00;;;;;;5081173;28;20078;-91
2021/09/22 10:49:54;;;;;;;9.60;7.90;;;18.30;66.90;;;;;;5078163;28;20072;-94
2021/09/22 10:52:37;;;;;;;9.80;8.00;;;18.50;66.50;;;;;;5078397;28;20080;-95
2021/09/22 10:55:17;;;;;;;10.43;8.75;;;18.50;66.50;;;;;;5077850;28;20457;-91
2021/09/22 10:57:45;;;;;;;11.15;7.97;;;18.60;66.40;;;;;;5077805;28;20427;-92
2021/09/22 11:00:20;;;;;;;10.82;8.48;;;18.70;66.30;;;;;;5078594;28;20029;-90
2021/09/22 11:02:54;;;;;;;10.00;7.35;;;18.80;66.30;;;;;;5078428;28;20040;-88
2021/09/22 11:05:25;;;;;;;9.50;7.90;;;18.90;66.20;;;;;;5059786;28;20119;-87
2021/09/22 11:07:54;;;;;;;9.93;7.88;;;18.90;66.10;;;;;;5076626;28;20040;-84
2021/09/22 11:10:45;;;;;;;10.65;7.60;;;19.00;66.00;;;;;;5076343;28;20048;-85
2021/09/22 11:13:23;;;;;;;9.38;7.03;;;19.10;66.20;;;;;;5076193;28;20024;-85
2021/09/22 11:15:49;;;;;;;9.15;7.20;;;19.10;66.00;;;;;;5076444;28;20035;-85
2021/09/22 11:18:16;;;;;;;10.32;7.85;;;19.20;65.90;;;;;;5075094;28;20476;-88
2021/09/22 11:20:55;;;;;;;8.80;7.38;;;19.20;65.60;;;;;;5058214;28;20053;-87
2021/09/22 11:23:22;;;;;;;8.95;6.65;;;19.30;65.70;;;;;;5074870;28;20025;-86
2021/09/22 11:25:48;;;;;;;12.15;8.00;;;19.30;65.70;;;;;;5074534;28;20025;-86
2021/09/22 11:28:14;;;;;;;8.70;6.90;;;19.30;65.50;;;;;;5075376;28;20028;-85
2021/09/22 11:30:42;;;;;;;9.32;6.57;;;19.40;65.50;;;;;;5074570;28;20036;-85
2021/09/22 11:33:21;;;;;;;8.70;7.18;;;19.40;66.10;;;;;;5041431;28;20025;-85
2021/09/22 11:35:47;;;;;;;10.05;7.45;;;19.50;65.60;;;;;;5057588;28;20033;-84
2021/09/22 11:38:13;;;;;;;8.82;7.20;;;19.50;65.50;;;;;;5074352;28;20037;-84
2021/09/22 11:40:39;;;;;;;9.93;7.15;;;19.50;65.40;;;;;;5075032;28;20434;-84
2021/09/22 11:43:19;;;;;;;9.27;6.70;;;19.60;65.30;;;;;;5058097;28;20075;-84
2021/09/22 11:45:51;;;;;;;8.45;6.07;;;19.60;65.40;;;;;;5073692;28;20051;-85
2021/09/22 11:48:38;;;;;;;8.32;6.00;;;19.60;65.10;;;;;;5073217;28;20469;-83
2021/09/22 11:51:09;;;;;;;8.70;6.32;;;19.70;65.20;;;;;;5056241;28;20127;-82
2021/09/22 11:53:37;;;;;;;9.57;6.40;;;19.70;65.00;;;;;;5074559;28;20104;-84
2021/09/22 11:56:04;;;;;;;8.18;5.90;;;19.70;64.80;;;;;;5040833;28;20457;-86
2021/09/22 11:58:33;;;;;;;7.90;5.93;;;19.80;64.70;;;;;;5073366;28;20464;-85
2021/09/22 12:01:02;;;;;;;8.13;6.13;;;19.80;64.60;;;;;;5073760;28;20060;-87
2021/09/22 12:03:33;;;;;;;10.00;6.07;;;19.80;64.60;;;;;;5073616;28;20072;-85
2021/09/22 12:06:17;;;;;;;8.77;6.55;;;19.80;64.50;;;;;;5073492;28;20540;-81
2021/09/22 12:08:46;;;;;;;7.07;5.70;;;19.90;64.50;;;;;;5072631;28;20136;-78
2021/09/22 12:11:15;;;;;;;7.32;5.13;;;19.90;64.50;;;;;;5056035;28;20051;-80
2021/09/22 12:13:46;;;;;;;7.65;5.00;;;19.90;64.60;;;;;;5072493;28;20385;-80
2021/09/22 12:16:16;;;;;;;6.38;4.63;;;19.90;64.80;;;;;;5039876;28;20044;-80
2021/09/22 12:18:58;;;;;;;6.63;4.82;;;19.90;65.80;;;;;;5056581;28;20033;-80
2021/09/22 12:21:25;;;;;;;6.70;4.72;;;20.00;65.50;;;;;;5073546;28;20024;-79
2021/09/22 12:23:51;;;;;;;6.13;4.47;;;20.00;65.60;;;;;;5072155;28;20422;-80
2021/09/22 12:26:17;;;;;;;7.03;4.80;;;20.00;65.70;;;;;;5055402;28;20036;-80
2021/09/22 12:28:43;;;;;;;6.97;4.43;;;20.00;65.90;;;;;;5072832;28;20384;-79
2021/09/22 12:31:19;;;;;;;6.78;4.30;;;20.00;66.10;;;;;;5072873;28;20093;-80
2021/09/22 12:33:46;;;;;;;5.28;4.00;;;20.00;66.30;;;;;;5055430;28;20024;-80
2021/09/22 12:36:14;;;;;;;7.63;4.07;;;20.10;66.30;;;;;;5071945;28;20155;-80
2021/09/22 12:38:48;;;;;;;5.18;3.55;;;20.10;66.40;;;;;;5055556;28;20472;-79
2021/09/22 12:41:15;;;;;;;4.90;3.45;;;20.10;66.40;;;;;;5073132;28;20098;-85
2021/09/22 12:43:41;;;;;;;5.43;3.70;;;20.10;66.40;;;;;;5073089;28;20035;-85
2021/09/22 12:46:19;;;;;;;5.80;3.85;;;20.10;66.40;;;;;;5055694;28;20032;-82
2021/09/22 12:48:45;;;;;;;5.18;3.78;;;20.10;66.50;;;;;;5055446;28;20039;-81
2021/09/22 12:51:13;;;;;;;5.13;3.45;;;20.20;66.50;;;;;;5055162;28;20029;-81
2021/09/22 12:53:38;;;;;;;5.80;3.90;;;20.20;66.50;;;;;;5073096;28;20024;-80
2021/09/22 12:56:12;;;;;;;6.10;4.13;;;20.20;66.50;;;;;;5055144;28;20115;-79
2021/09/22 12:58:39;;;;;;;5.40;3.40;;;20.20;66.50;;;;;;5055518;28;20111;-81
2021/09/22 13:01:07;;;;;;;6.05;3.80;;;20.20;66.40;;;;;;5072764;28;20024;-80
2021/09/22 13:03:37;;;;;;;5.72;3.90;;;20.20;66.40;;;;;;5071566;28;20433;-83
2021/09/22 13:06:15;;;;;;;6.28;3.40;;;20.20;66.40;;;;;;5071574;28;20043;-80